Grand Holiday — CQNH — position and weather

sailwx.info

Track history (hours):
 
Tides and Currents Weather Stations Pressure Air Temp Water Temp Dewpoint Dewpoint Depression Visibility Wind Speed Wind Dir Waves Ship Positions

Grand Holiday

Last reported at 2014-Aug-21 23:15 UTC. Time now 2014-Aug-23 01:41 UTC.
Position N 42°32' E 009°49'.

Length 222 m; draft 7.7 m.

Type: Passenger vessel. MMSI: 255803790.

Date/timePositionNaut miles runAvg speedWind from/ knotsBaromVisibWave heightAir tempDewpointWater temp
2014-Aug-21 23:15N 42°32' E 009°49'1517.3
2014-Aug-21 22:24N 42°46' E 009°43'1517.2
2014-Aug-21 21:33N 42°60' E 009°36'1616.5
2014-Aug-21 20:34N 43°16' E 009°39'1616.5
2014-Aug-21 19:33N 43°32' E 009°44'1716.9
2014-Aug-21 18:34N 43°48' E 009°50'1515.3
2014-Aug-21 17:33N 44°04' E 009°51'2 2.0
2014-Aug-21 16:32N 44°05' E 009°49'0 0.0
2014-Aug-21 15:31N 44°05' E 009°49'0 0.0
2014-Aug-21 14:31N 44°05' E 009°49'0 0.0
2014-Aug-21 13:33N 44°05' E 009°49'0 0.0
2014-Aug-21 12:33N 44°05' E 009°49'0 0.0
2014-Aug-21 11:33N 44°05' E 009°49'0 0.0
2014-Aug-21 10:32N 44°05' E 009°49'0 0.0
2014-Aug-21 09:32N 44°05' E 009°49'0 0.0
2014-Aug-21 08:31N 44°05' E 009°49'0 0.0
2014-Aug-21 07:31N 44°05' E 009°49'0 0.0
2014-Aug-21 06:33N 44°05' E 009°49'0 0.0
2014-Aug-21 05:30N 44°05' E 009°49'1 1.5
2014-Aug-21 04:33N 44°04' E 009°51'7 7.4
2014-Aug-21 03:33N 43°57' E 009°53'1211.8
2014-Aug-21 02:33N 43°57' E 009°36'1111.5
2014-Aug-21 01:33N 43°60' E 009°21'1111.5
2014-Aug-21 00:33N 44°05' E 009°07'1211.5
2014-Aug-20 23:33N 44°11' E 008°52'1211.9
2014-Aug-20 22:33N 44°16' E 008°38'7 6.4
2014-Aug-20 21:32N 44°19' E 008°29'0 0.0
2014-Aug-20 19:19N 44°19' E 008°29'0 0.0
2014-Aug-20 18:19N 44°19' E 008°29'0 0.0
2014-Aug-20 17:30N 44°19' E 008°29'0 0.0
2014-Aug-20 16:30N 44°19' E 008°29'0 0.0
2014-Aug-20 15:29N 44°19' E 008°29'0 0.0
2014-Aug-20 14:29N 44°19' E 008°29'0 0.0
2014-Aug-20 13:16N 44°19' E 008°29'0 0.0
2014-Aug-20 12:22N 44°19' E 008°29'0 0.0
2014-Aug-20 11:31N 44°19' E 008°29'0 0.0
2014-Aug-20 10:27N 44°19' E 008°29'0 0.0
2014-Aug-20 09:33N 44°19' E 008°29'0 0.0
2014-Aug-20 08:20N 44°19' E 008°29'0 0.0
2014-Aug-20 06:22N 44°19' E 008°29'0 0.0
2014-Aug-20 05:13N 44°19' E 008°29'0 0.0
2014-Aug-20 04:33N 44°19' E 008°29'4 3.6
2014-Aug-20 03:33N 44°16' E 008°32'1110.7
2014-Aug-20 02:33N 44°05' E 008°32'1111.2
2014-Aug-20 01:34N 43°54' E 008°28'1311.3
2014-Aug-20 00:23N 43°44' E 008°17'1011.6
2014-Aug-19 23:31N 43°39' E 008°04'1111.3
2014-Aug-19 22:32N 43°35' E 007°50'1010.4
2014-Aug-19 21:33N 43°35' E 007°36'1110.8
2014-Aug-19 20:34N 43°39' E 007°22'4 3.5
2014-Aug-19 19:32N 43°42' E 007°19'0 0.0
2014-Aug-19 18:31N 43°42' E 007°19'0 0.0
2014-Aug-19 17:25N 43°42' E 007°19'0 0.0
2014-Aug-19 16:30N 43°42' E 007°19'0 0.0
2014-Aug-19 15:24N 43°42' E 007°19'0 0.1
2014-Aug-19 14:30N 43°42' E 007°19'0 0.0
2014-Aug-19 13:29N 43°42' E 007°19'0 0.0
2014-Aug-19 12:29N 43°42' E 007°19'0 0.0
2014-Aug-19 11:22N 43°42' E 007°19'0 0.0
2014-Aug-19 10:22N 43°42' E 007°19'0 0.0
2014-Aug-19 09:33N 43°42' E 007°19'0 0.0
2014-Aug-19 08:33N 43°42' E 007°19'0 0.0
2014-Aug-19 07:33N 43°42' E 007°19'0 0.0
2014-Aug-19 06:20N 43°42' E 007°19'0 0.1
2014-Aug-19 05:29N 43°42' E 007°19'5 5.5
2014-Aug-19 04:33N 43°37' E 007°18'10 9.9
2014-Aug-19 03:33N 43°27' E 007°19'10 9.9
2014-Aug-19 02:33N 43°18' E 007°13'1010.4
2014-Aug-19 01:33N 43°10' E 007°03'1010.2
2014-Aug-19 00:33N 43°03' E 006°54'1010.0
2014-Aug-18 23:33N 42°58' E 006°41'1010.0
2014-Aug-18 22:33N 42°55' E 006°28'1010.1
2014-Aug-18 21:33N 42°54' E 006°15'1010.3
2014-Aug-18 20:33N 42°55' E 006°01'1010.2
2014-Aug-18 19:33N 42°56' E 005°47'1313.2
2014-Aug-18 18:33N 43°02' E 005°31'1515.1
2014-Aug-18 17:33N 43°09' E 005°13'1211.0
2014-Aug-18 16:29N 43°20' E 005°17'2 0.3
2014-Aug-18 08:33N 43°21' E 005°20'0 0.0
2014-Aug-18 07:21N 43°21' E 005°20'0 0.0
2014-Aug-18 06:31N 43°21' E 005°20'6 5.6
2014-Aug-18 05:31N 43°18' E 005°13'7 6.8
2014-Aug-18 04:33N 43°13' E 005°08'1110.8
2014-Aug-18 03:32N 43°03' E 005°00'1110.6
2014-Aug-18 02:32N 42°55' E 004°51'1010.3
2014-Aug-18 01:32N 42°47' E 004°42'1010.3
2014-Aug-18 00:33N 42°39' E 004°34'9015.0
2014-Aug-17 18:33N 41°35' E 003°08'1413.7
2014-Aug-17 17:33N 41°29' E 002°51'1313.4
2014-Aug-17 16:33N 41°23' E 002°36'1414.1
2014-Aug-17 15:33N 41°17' E 002°19'7 0.7
2014-Aug-17 05:25N 41°19' E 002°10'9 8.1
2014-Aug-17 04:20N 41°14' E 002°19'7 9.0
2014-Aug-17 03:33N 41°11' E 002°27'9 8.6
2014-Aug-17 02:32N 41°06' E 002°37'9 9.4
2014-Aug-17 01:33N 41°02' E 002°48'9 9.1
2014-Aug-17 00:33N 40°58' E 002°59'9 9.4
2014-Aug-16 23:33N 40°54' E 003°10'1010.2
2014-Aug-16 22:34N 40°49' E 003°22'10 9.7
2014-Aug-16 21:33N 40°44' E 003°33'302 6.4
2014-Aug-14 22:33N 42°37' E 009°49'3715.1
2014-Aug-14 20:08N 43°13' E 009°38'813.7
2014-Aug-14 19:33N 43°20' E 009°41'1414.0
2014-Aug-14 18:33N 43°34' E 009°45'1515.4
2014-Aug-14 17:33N 43°49' E 009°50'1514.9
2014-Aug-14 16:33N 44°04' E 009°51'3 2.6
2014-Aug-14 15:31N 44°06' E 009°50'0 0.0
2014-Aug-14 14:31N 44°06' E 009°50'0 0.0
2014-Aug-14 13:33N 44°06' E 009°50'0 0.0
2014-Aug-14 12:30N 44°06' E 009°50'0 0.0
2014-Aug-14 11:33N 44°06' E 009°50'0 0.0
2014-Aug-14 10:32N 44°06' E 009°50'0 0.0
2014-Aug-14 09:32N 44°06' E 009°50'0 0.0
2014-Aug-14 08:31N 44°06' E 009°50'0 0.0
2014-Aug-14 07:31N 44°06' E 009°50'0 0.0
2014-Aug-14 06:33N 44°06' E 009°50'0 0.0
2014-Aug-14 05:33N 44°06' E 009°50'1 0.6
2014-Aug-14 04:33N 44°06' E 009°50'8 7.6
2014-Aug-14 03:33N 43°60' E 009°56'1312.6
2014-Aug-14 02:34N 43°57' E 009°39'1212.5
2014-Aug-14 01:34N 43°59' E 009°22'1110.9
2014-Aug-14 00:33N 44°04' E 009°09'1110.9
2014-Aug-13 23:33N 44°10' E 008°56'1211.8
2014-Aug-13 22:33N 44°15' E 008°41'9 8.4
2014-Aug-13 21:28N 44°19' E 008°29'0 0.0
2014-Aug-13 20:33N 44°19' E 008°29'0 0.0
2014-Aug-13 18:14N 44°19' E 008°29'0 0.0
2014-Aug-13 17:26N 44°19' E 008°29'0 0.0
2014-Aug-13 16:32N 44°19' E 008°29'0 0.0
2014-Aug-13 15:31N 44°19' E 008°29'0 0.0
2014-Aug-13 14:25N 44°19' E 008°29'0 0.0
2014-Aug-13 13:24N 44°19' E 008°29'0 0.0
2014-Aug-13 12:24N 44°19' E 008°29'0 0.0
2014-Aug-13 11:29N 44°19' E 008°29'0 0.0
2014-Aug-13 10:29N 44°19' E 008°29'0 0.1
2014-Aug-13 09:30N 44°19' E 008°29'0 0.0
2014-Aug-13 08:24N 44°19' E 008°29'0 0.0
2014-Aug-13 07:28N 44°19' E 008°29'0 0.0
2014-Aug-13 06:29N 44°19' E 008°29'0 0.0
2014-Aug-13 05:22N 44°19' E 008°29'0 0.0
2014-Aug-13 04:33N 44°19' E 008°29'3 3.4
2014-Aug-13 03:33N 44°16' E 008°32'10 9.7
2014-Aug-13 02:32N 44°06' E 008°32'1010.3
2014-Aug-13 01:33N 43°56' E 008°31'1111.4
2014-Aug-13 00:33N 43°47' E 008°22'1111.2
2014-Aug-12 23:33N 43°39' E 008°11'1111.4
2014-Aug-12 22:33N 43°36' E 007°55'1111.0
2014-Aug-12 21:33N 43°34' E 007°40'1110.9
2014-Aug-12 20:33N 43°38' E 007°26'7 6.8
2014-Aug-12 19:33N 43°42' E 007°19'0 0.0
2014-Aug-12 18:30N 43°42' E 007°19'0 0.0
2014-Aug-12 17:30N 43°42' E 007°19'0 0.0
2014-Aug-12 16:32N 43°42' E 007°19'0 0.0
2014-Aug-12 15:32N 43°42' E 007°19'0 0.0
2014-Aug-12 14:31N 43°42' E 007°19'0 0.0
2014-Aug-12 13:25N 43°42' E 007°19'0 0.0
2014-Aug-12 10:21N 43°42' E 007°19'0 0.0
2014-Aug-12 09:32N 43°42' E 007°19'0 0.0
2014-Aug-12 08:20N 43°42' E 007°19'0 0.0
2014-Aug-12 07:07N 43°42' E 007°19'0 0.0
2014-Aug-12 06:25N 43°42' E 007°19'0 0.0
2014-Aug-12 05:13N 43°42' E 007°19'6 8.5
2014-Aug-12 04:33N 43°36' E 007°18'1212.4
2014-Aug-12 03:33N 43°24' E 007°17'1111.1
2014-Aug-12 02:33N 43°14' E 007°09'1111.1
2014-Aug-12 01:33N 43°06' E 006°59'1110.7
2014-Aug-12 00:33N 43°00' E 006°46'1010.5
2014-Aug-11 23:34N 42°56' E 006°34'  
Track history (hours):
 
Tides and Currents Weather Stations Pressure Air Temp Water Temp Dewpoint Dewpoint Depression Visibility Wind Speed Wind Dir Waves Ship Positions

Grand Holiday

Last reported at 2014-Aug-21 23:15 UTC. Time now 2014-Aug-23 01:41 UTC.
Position N 42°32' E 009°49'.

Length 222 m; draft 7.7 m.

Type: Passenger vessel. MMSI: 255803790.

Date/timePositionNaut miles runAvg speedWind from/ knotsBaromVisibWave heightAir tempDewpointWater temp
2014-Aug-21 23:15N 42°32' E 009°49'1517.3
2014-Aug-21 22:24N 42°46' E 009°43'1517.2
2014-Aug-21 21:33N 42°60' E 009°36'1616.5
2014-Aug-21 20:34N 43°16' E 009°39'1616.5
2014-Aug-21 19:33N 43°32' E 009°44'1716.9
2014-Aug-21 18:34N 43°48' E 009°50'1515.3
2014-Aug-21 17:33N 44°04' E 009°51'2 2.0
2014-Aug-21 16:32N 44°05' E 009°49'0 0.0
2014-Aug-21 15:31N 44°05' E 009°49'0 0.0
2014-Aug-21 14:31N 44°05' E 009°49'0 0.0
2014-Aug-21 13:33N 44°05' E 009°49'0 0.0
2014-Aug-21 12:33N 44°05' E 009°49'0 0.0
2014-Aug-21 11:33N 44°05' E 009°49'0 0.0
2014-Aug-21 10:32N 44°05' E 009°49'0 0.0
2014-Aug-21 09:32N 44°05' E 009°49'0 0.0
2014-Aug-21 08:31N 44°05' E 009°49'0 0.0
2014-Aug-21 07:31N 44°05' E 009°49'0 0.0
2014-Aug-21 06:33N 44°05' E 009°49'0 0.0
2014-Aug-21 05:30N 44°05' E 009°49'1 1.5
2014-Aug-21 04:33N 44°04' E 009°51'7 7.4
2014-Aug-21 03:33N 43°57' E 009°53'1211.8
2014-Aug-21 02:33N 43°57' E 009°36'1111.5
2014-Aug-21 01:33N 43°60' E 009°21'1111.5
2014-Aug-21 00:33N 44°05' E 009°07'1211.5
2014-Aug-20 23:33N 44°11' E 008°52'1211.9
2014-Aug-20 22:33N 44°16' E 008°38'7 6.4
2014-Aug-20 21:32N 44°19' E 008°29'0 0.0
2014-Aug-20 19:19N 44°19' E 008°29'0 0.0
2014-Aug-20 18:19N 44°19' E 008°29'0 0.0
2014-Aug-20 17:30N 44°19' E 008°29'0 0.0
2014-Aug-20 16:30N 44°19' E 008°29'0 0.0
2014-Aug-20 15:29N 44°19' E 008°29'0 0.0
2014-Aug-20 14:29N 44°19' E 008°29'0 0.0
2014-Aug-20 13:16N 44°19' E 008°29'0 0.0
2014-Aug-20 12:22N 44°19' E 008°29'0 0.0
2014-Aug-20 11:31N 44°19' E 008°29'0 0.0
2014-Aug-20 10:27N 44°19' E 008°29'0 0.0
2014-Aug-20 09:33N 44°19' E 008°29'0 0.0
2014-Aug-20 08:20N 44°19' E 008°29'0 0.0
2014-Aug-20 06:22N 44°19' E 008°29'0 0.0
2014-Aug-20 05:13N 44°19' E 008°29'0 0.0
2014-Aug-20 04:33N 44°19' E 008°29'4 3.6
2014-Aug-20 03:33N 44°16' E 008°32'1110.7
2014-Aug-20 02:33N 44°05' E 008°32'1111.2
2014-Aug-20 01:34N 43°54' E 008°28'1311.3
2014-Aug-20 00:23N 43°44' E 008°17'1011.6
2014-Aug-19 23:31N 43°39' E 008°04'1111.3
2014-Aug-19 22:32N 43°35' E 007°50'1010.4
2014-Aug-19 21:33N 43°35' E 007°36'1110.8
2014-Aug-19 20:34N 43°39' E 007°22'4 3.5
2014-Aug-19 19:32N 43°42' E 007°19'0 0.0
2014-Aug-19 18:31N 43°42' E 007°19'0 0.0
2014-Aug-19 17:25N 43°42' E 007°19'0 0.0
2014-Aug-19 16:30N 43°42' E 007°19'0 0.0
2014-Aug-19 15:24N 43°42' E 007°19'0 0.1
2014-Aug-19 14:30N 43°42' E 007°19'0 0.0
2014-Aug-19 13:29N 43°42' E 007°19'0 0.0
2014-Aug-19 12:29N 43°42' E 007°19'0 0.0
2014-Aug-19 11:22N 43°42' E 007°19'0 0.0
2014-Aug-19 10:22N 43°42' E 007°19'0 0.0
2014-Aug-19 09:33N 43°42' E 007°19'0 0.0
2014-Aug-19 08:33N 43°42' E 007°19'0 0.0
2014-Aug-19 07:33N 43°42' E 007°19'0 0.0
2014-Aug-19 06:20N 43°42' E 007°19'0 0.1
2014-Aug-19 05:29N 43°42' E 007°19'5 5.5
2014-Aug-19 04:33N 43°37' E 007°18'10 9.9
2014-Aug-19 03:33N 43°27' E 007°19'10 9.9
2014-Aug-19 02:33N 43°18' E 007°13'1010.4
2014-Aug-19 01:33N 43°10' E 007°03'1010.2
2014-Aug-19 00:33N 43°03' E 006°54'1010.0
2014-Aug-18 23:33N 42°58' E 006°41'1010.0
2014-Aug-18 22:33N 42°55' E 006°28'1010.1
2014-Aug-18 21:33N 42°54' E 006°15'1010.3
2014-Aug-18 20:33N 42°55' E 006°01'1010.2
2014-Aug-18 19:33N 42°56' E 005°47'1313.2
2014-Aug-18 18:33N 43°02' E 005°31'1515.1
2014-Aug-18 17:33N 43°09' E 005°13'1211.0
2014-Aug-18 16:29N 43°20' E 005°17'2 0.3
2014-Aug-18 08:33N 43°21' E 005°20'0 0.0
2014-Aug-18 07:21N 43°21' E 005°20'0 0.0
2014-Aug-18 06:31N 43°21' E 005°20'6 5.6
2014-Aug-18 05:31N 43°18' E 005°13'7 6.8
2014-Aug-18 04:33N 43°13' E 005°08'1110.8
2014-Aug-18 03:32N 43°03' E 005°00'1110.6
2014-Aug-18 02:32N 42°55' E 004°51'1010.3
2014-Aug-18 01:32N 42°47' E 004°42'1010.3
2014-Aug-18 00:33N 42°39' E 004°34'9015.0
2014-Aug-17 18:33N 41°35' E 003°08'1413.7
2014-Aug-17 17:33N 41°29' E 002°51'1313.4
2014-Aug-17 16:33N 41°23' E 002°36'1414.1
2014-Aug-17 15:33N 41°17' E 002°19'7 0.7
2014-Aug-17 05:25N 41°19' E 002°10'9 8.1
2014-Aug-17 04:20N 41°14' E 002°19'7 9.0
2014-Aug-17 03:33N 41°11' E 002°27'9 8.6
2014-Aug-17 02:32N 41°06' E 002°37'9 9.4
2014-Aug-17 01:33N 41°02' E 002°48'9 9.1
2014-Aug-17 00:33N 40°58' E 002°59'9 9.4
2014-Aug-16 23:33N 40°54' E 003°10'1010.2
2014-Aug-16 22:34N 40°49' E 003°22'10 9.7
2014-Aug-16 21:33N 40°44' E 003°33'302 6.4
2014-Aug-14 22:33N 42°37' E 009°49'3715.1
2014-Aug-14 20:08N 43°13' E 009°38'813.7
2014-Aug-14 19:33N 43°20' E 009°41'1414.0
2014-Aug-14 18:33N 43°34' E 009°45'1515.4
2014-Aug-14 17:33N 43°49' E 009°50'1514.9
2014-Aug-14 16:33N 44°04' E 009°51'3 2.6
2014-Aug-14 15:31N 44°06' E 009°50'0 0.0
2014-Aug-14 14:31N 44°06' E 009°50'0 0.0
2014-Aug-14 13:33N 44°06' E 009°50'0 0.0
2014-Aug-14 12:30N 44°06' E 009°50'0 0.0
2014-Aug-14 11:33N 44°06' E 009°50'0 0.0
2014-Aug-14 10:32N 44°06' E 009°50'0 0.0
2014-Aug-14 09:32N 44°06' E 009°50'0 0.0
2014-Aug-14 08:31N 44°06' E 009°50'0 0.0
2014-Aug-14 07:31N 44°06' E 009°50'0 0.0
2014-Aug-14 06:33N 44°06' E 009°50'0 0.0
2014-Aug-14 05:33N 44°06' E 009°50'1 0.6
2014-Aug-14 04:33N 44°06' E 009°50'8 7.6
2014-Aug-14 03:33N 43°60' E 009°56'1312.6
2014-Aug-14 02:34N 43°57' E 009°39'1212.5
2014-Aug-14 01:34N 43°59' E 009°22'1110.9
2014-Aug-14 00:33N 44°04' E 009°09'1110.9
2014-Aug-13 23:33N 44°10' E 008°56'1211.8
2014-Aug-13 22:33N 44°15' E 008°41'9 8.4
2014-Aug-13 21:28N 44°19' E 008°29'0 0.0
2014-Aug-13 20:33N 44°19' E 008°29'0 0.0
2014-Aug-13 18:14N 44°19' E 008°29'0 0.0
2014-Aug-13 17:26N 44°19' E 008°29'0 0.0
2014-Aug-13 16:32N 44°19' E 008°29'0 0.0
2014-Aug-13 15:31N 44°19' E 008°29'0 0.0
2014-Aug-13 14:25N 44°19' E 008°29'0 0.0
2014-Aug-13 13:24N 44°19' E 008°29'0 0.0
2014-Aug-13 12:24N 44°19' E 008°29'0 0.0
2014-Aug-13 11:29N 44°19' E 008°29'0 0.0
2014-Aug-13 10:29N 44°19' E 008°29'0 0.1
2014-Aug-13 09:30N 44°19' E 008°29'0 0.0
2014-Aug-13 08:24N 44°19' E 008°29'0 0.0
2014-Aug-13 07:28N 44°19' E 008°29'0 0.0
2014-Aug-13 06:29N 44°19' E 008°29'0 0.0
2014-Aug-13 05:22N 44°19' E 008°29'0 0.0
2014-Aug-13 04:33N 44°19' E 008°29'3 3.4
2014-Aug-13 03:33N 44°16' E 008°32'10 9.7
2014-Aug-13 02:32N 44°06' E 008°32'1010.3
2014-Aug-13 01:33N 43°56' E 008°31'1111.4
2014-Aug-13 00:33N 43°47' E 008°22'1111.2
2014-Aug-12 23:33N 43°39' E 008°11'1111.4
2014-Aug-12 22:33N 43°36' E 007°55'1111.0
2014-Aug-12 21:33N 43°34' E 007°40'1110.9
2014-Aug-12 20:33N 43°38' E 007°26'7 6.8
2014-Aug-12 19:33N 43°42' E 007°19'0 0.0
2014-Aug-12 18:30N 43°42' E 007°19'0 0.0
2014-Aug-12 17:30N 43°42' E 007°19'0 0.0
2014-Aug-12 16:32N 43°42' E 007°19'0 0.0
2014-Aug-12 15:32N 43°42' E 007°19'0 0.0
2014-Aug-12 14:31N 43°42' E 007°19'0 0.0
2014-Aug-12 13:25N 43°42' E 007°19'0 0.0
2014-Aug-12 10:21N 43°42' E 007°19'0 0.0
2014-Aug-12 09:32N 43°42' E 007°19'0 0.0
2014-Aug-12 08:20N 43°42' E 007°19'0 0.0
2014-Aug-12 07:07N 43°42' E 007°19'0 0.0
2014-Aug-12 06:25N 43°42' E 007°19'0 0.0
2014-Aug-12 05:13N 43°42' E 007°19'6 8.5
2014-Aug-12 04:33N 43°36' E 007°18'1212.4
2014-Aug-12 03:33N 43°24' E 007°17'1111.1
2014-Aug-12 02:33N 43°14' E 007°09'1111.1
2014-Aug-12 01:33N 43°06' E 006°59'1110.7
2014-Aug-12 00:33N 43°00' E 006°46'1010.5
2014-Aug-11 23:34N 42°56' E 006°34'  

Dump ship's entire track history